Time;durP1;ratioP1;P1;durP2;ratioP2;P2;SDS_P1;SDS_P2;PMS_P1;PMS_P2;Temp;Humidity;BMP_temperature;BMP_pressure;BME280_temperature;BME280_humidity;BME280_pressure;Samples;Min_cycle;Max_cycle;Signal;HPM_P1;HPM_P2
2021/12/03 00:01:14;;;;;;;0.40;0.20;;;2.40;99.90;;;;;;4954316;29;20390;-72
2021/12/03 00:03:39;;;;;;;0.40;0.20;;;2.30;99.90;;;;;;4953200;29;20491;-71
2021/12/03 00:06:06;;;;;;;0.40;0.20;;;2.30;99.90;;;;;;4953160;28;20450;-72
2021/12/03 00:08:32;;;;;;;0.40;0.20;;;2.40;99.90;;;;;;4952658;29;20481;-71
2021/12/03 00:11:00;;;;;;;0.40;0.20;;;2.50;99.90;;;;;;4953418;29;20760;-71
2021/12/03 00:13:29;;;;;;;0.40;0.20;;;2.40;99.90;;;;;;4952642;29;20425;-71
2021/12/03 00:15:56;;;;;;;0.40;0.30;;;2.40;99.90;;;;;;4952932;29;20440;-72
2021/12/03 00:18:22;;;;;;;0.40;0.30;;;2.50;99.90;;;;;;4952608;29;20489;-72
2021/12/03 00:20:49;;;;;;;0.40;0.30;;;2.50;99.90;;;;;;4953199;29;20567;-72
2021/12/03 00:23:16;;;;;;;0.40;0.30;;;2.50;99.90;;;;;;4952328;29;20489;-72
2021/12/03 00:25:42;;;;;;;0.40;0.20;;;2.60;99.90;;;;;;4953016;29;20425;-72
2021/12/03 00:28:09;;;;;;;0.70;0.60;;;2.50;99.90;;;;;;4953166;29;20906;-71
2021/12/03 00:30:36;;;;;;;0.40;0.20;;;2.50;99.90;;;;;;4953077;29;20390;-71
2021/12/03 00:33:04;;;;;;;0.60;0.60;;;2.40;99.90;;;;;;4935815;29;20799;-70
2021/12/03 00:35:30;;;;;;;0.40;0.40;;;2.40;99.90;;;;;;4960317;28;21065;-71
2021/12/03 00:37:55;;;;;;;0.40;0.20;;;2.40;99.90;;;;;;4972144;28;20388;-71
2021/12/03 00:40:29;;;;;;;0.40;0.20;;;2.40;99.90;;;;;;4971733;28;20471;-71
2021/12/03 00:42:55;;;;;;;0.40;0.20;;;2.20;99.90;;;;;;4972162;28;20388;-71
2021/12/03 00:45:21;;;;;;;0.40;0.20;;;2.30;99.90;;;;;;4971576;28;20521;-71
2021/12/03 00:47:48;;;;;;;0.40;0.20;;;2.20;99.90;;;;;;4972047;28;20396;-71
2021/12/03 00:50:18;;;;;;;0.70;0.50;;;2.20;99.90;;;;;;4971102;28;20424;-70
2021/12/03 00:52:44;;;;;;;0.40;0.20;;;2.20;99.90;;;;;;4971858;28;20388;-71
2021/12/03 00:55:11;;;;;;;0.40;0.30;;;2.10;99.90;;;;;;4972000;28;20407;-71
2021/12/03 00:57:39;;;;;;;0.40;0.20;;;2.10;99.90;;;;;;4971147;28;20415;-73
2021/12/03 01:00:10;;;;;;;0.40;0.20;;;2.20;99.90;;;;;;4971993;28;20478;-71
2021/12/03 01:02:36;;;;;;;0.60;0.60;;;2.20;99.90;;;;;;4971391;28;20398;-71
2021/12/03 01:05:02;;;;;;;0.40;0.20;;;2.10;99.90;;;;;;4971984;28;20475;-71
2021/12/03 01:07:28;;;;;;;0.40;0.30;;;2.00;99.90;;;;;;4971132;28;20388;-71
2021/12/03 01:09:54;;;;;;;0.40;0.30;;;1.90;99.90;;;;;;4971552;28;20399;-71
2021/12/03 01:12:19;;;;;;;0.40;0.20;;;1.90;99.90;;;;;;4971193;28;20492;-72
2021/12/03 01:14:45;;;;;;;0.40;0.20;;;1.90;99.90;;;;;;4971765;28;20415;-72
2021/12/03 01:17:11;;;;;;;1.20;0.90;;;2.10;99.90;;;;;;4970849;28;20479;-72
2021/12/03 01:19:37;;;;;;;0.40;0.20;;;2.10;99.90;;;;;;4971206;28;20946;-71
2021/12/03 01:22:04;;;;;;;0.40;0.20;;;2.10;99.90;;;;;;4971697;28;20392;-71
2021/12/03 01:24:30;;;;;;;0.40;0.20;;;2.00;99.90;;;;;;4970812;28;20395;-72
2021/12/03 01:26:55;;;;;;;0.40;0.20;;;1.90;99.90;;;;;;4971679;28;20467;-71
2021/12/03 01:29:23;;;;;;;0.50;0.50;;;1.90;99.90;;;;;;4953670;28;20380;-71
2021/12/03 01:31:51;;;;;;;0.40;0.20;;;1.90;99.90;;;;;;4971576;28;20385;-72
2021/12/03 01:34:17;;;;;;;0.40;0.20;;;1.90;99.90;;;;;;4970783;28;20764;-72
2021/12/03 01:36:43;;;;;;;0.40;0.20;;;1.80;99.90;;;;;;4971403;28;20479;-72
2021/12/03 01:39:09;;;;;;;0.40;0.22;;;1.70;99.90;;;;;;4971028;28;20887;-72
2021/12/03 01:41:35;;;;;;;0.40;0.30;;;1.70;99.90;;;;;;4971024;28;20388;-72
2021/12/03 01:44:02;;;;;;;0.40;0.20;;;1.70;99.90;;;;;;4971311;28;20451;-72
2021/12/03 01:46:32;;;;;;;0.40;0.20;;;1.70;99.90;;;;;;4970735;28;20400;-72
2021/12/03 01:48:59;;;;;;;0.40;0.20;;;1.60;99.90;;;;;;4971143;28;20396;-73
2021/12/03 01:51:26;;;;;;;0.40;0.20;;;1.60;99.90;;;;;;4970290;28;20417;-72
2021/12/03 01:53:54;;;;;;;0.40;0.20;;;1.40;99.90;;;;;;4971096;28;20420;-72
2021/12/03 01:56:21;;;;;;;0.40;0.20;;;1.40;99.90;;;;;;4970640;28;20406;-72
2021/12/03 01:58:49;;;;;;;0.40;0.30;;;1.40;99.90;;;;;;4971087;28;20396;-73
2021/12/03 02:01:24;;;;;;;0.40;0.20;;;1.30;99.90;;;;;;4971254;28;20483;-75
2021/12/03 02:03:52;;;;;;;0.40;0.20;;;1.30;99.90;;;;;;4971615;28;20407;-73
2021/12/03 02:06:19;;;;;;;0.50;0.50;;;1.30;99.90;;;;;;4971093;28;20391;-73
2021/12/03 02:08:45;;;;;;;0.40;0.30;;;1.10;99.90;;;;;;4970177;28;20868;-72
2021/12/03 02:11:12;;;;;;;0.40;0.20;;;1.10;99.90;;;;;;4971136;28;20431;-72
2021/12/03 02:13:39;;;;;;;0.40;0.20;;;1.00;99.90;;;;;;4970123;28;20447;-72
2021/12/03 02:16:06;;;;;;;0.50;0.40;;;1.00;99.90;;;;;;4970853;28;20400;-71
2021/12/03 02:18:32;;;;;;;0.40;0.20;;;1.00;99.90;;;;;;4971010;28;20469;-72
2021/12/03 02:21:02;;;;;;;0.40;0.30;;;0.90;99.90;;;;;;4970597;28;20400;-71
2021/12/03 02:23:28;;;;;;;0.40;0.20;;;0.90;99.90;;;;;;4953326;28;20400;-72
2021/12/03 02:25:55;;;;;;;0.40;0.20;;;0.90;99.90;;;;;;4970365;28;20853;-72
2021/12/03 02:28:24;;;;;;;0.40;0.20;;;0.80;99.90;;;;;;4972068;28;20400;-72
2021/12/03 02:30:52;;;;;;;0.40;0.30;;;0.90;99.90;;;;;;4973633;28;20419;-71
2021/12/03 02:33:18;;;;;;;0.40;0.30;;;0.80;99.90;;;;;;4974212;28;20427;-74
2021/12/03 02:35:45;;;;;;;0.40;0.20;;;0.80;99.90;;;;;;4974284;28;20487;-74
2021/12/03 02:38:13;;;;;;;0.40;0.20;;;0.80;99.90;;;;;;4973763;28;20396;-75
2021/12/03 02:40:39;;;;;;;0.40;0.30;;;0.70;99.90;;;;;;4974389;28;20438;-75
2021/12/03 02:43:05;;;;;;;1.20;0.90;;;0.70;99.90;;;;;;4974054;28;20389;-75
2021/12/03 02:45:31;;;;;;;0.40;0.30;;;0.80;99.90;;;;;;4974273;28;20384;-76
2021/12/03 02:47:59;;;;;;;0.40;0.20;;;0.70;99.90;;;;;;4974691;28;20931;-74
2021/12/03 02:50:26;;;;;;;0.40;0.20;;;0.60;99.90;;;;;;4973871;28;20416;-73
2021/12/03 02:52:53;;;;;;;0.40;0.20;;;0.50;99.90;;;;;;4973912;28;20471;-74
2021/12/03 02:55:20;;;;;;;0.40;0.20;;;0.60;99.90;;;;;;4973348;28;20566;-73
2021/12/03 02:57:46;;;;;;;0.40;0.20;;;0.50;99.90;;;;;;4974306;28;20404;-74
2021/12/03 03:00:14;;;;;;;0.40;0.20;;;0.50;99.90;;;;;;4973397;28;20475;-73
2021/12/03 03:02:41;;;;;;;0.40;0.20;;;0.50;99.90;;;;;;4974047;28;20388;-74
2021/12/03 03:05:09;;;;;;;0.40;0.20;;;0.60;99.90;;;;;;4973411;28;20436;-74
2021/12/03 03:07:35;;;;;;;0.40;0.20;;;0.60;99.90;;;;;;4973408;28;20470;-74
2021/12/03 03:10:03;;;;;;;0.40;0.22;;;0.50;99.90;;;;;;4973908;28;20392;-74
2021/12/03 03:12:29;;;;;;;0.40;0.20;;;0.50;99.90;;;;;;4973159;28;20395;-74
2021/12/03 03:14:58;;;;;;;0.40;0.20;;;0.50;99.90;;;;;;4973688;28;20424;-74
2021/12/03 03:17:25;;;;;;;0.40;0.20;;;0.60;99.90;;;;;;4973178;28;20388;-74
2021/12/03 03:19:52;;;;;;;0.40;0.20;;;0.60;99.90;;;;;;4973475;28;20468;-74
2021/12/03 03:22:19;;;;;;;0.40;0.20;;;0.50;99.90;;;;;;4973602;28;20514;-74
2021/12/03 03:24:45;;;;;;;0.40;0.20;;;0.50;99.90;;;;;;4972849;28;20389;-74
2021/12/03 03:27:13;;;;;;;0.40;0.20;;;0.60;99.90;;;;;;4973626;28;20385;-74
2021/12/03 03:29:38;;;;;;;0.40;0.20;;;0.60;99.90;;;;;;4972883;28;20391;-74
2021/12/03 03:32:05;;;;;;;0.40;0.20;;;0.50;99.90;;;;;;4973847;28;20471;-74
2021/12/03 03:34:30;;;;;;;0.40;0.20;;;0.50;99.90;;;;;;4972865;28;20506;-74
2021/12/03 03:36:56;;;;;;;0.40;0.20;;;0.50;99.90;;;;;;4953241;29;20862;-74
2021/12/03 03:39:22;;;;;;;0.40;0.20;;;0.60;99.90;;;;;;4953380;28;20389;-74
2021/12/03 03:41:48;;;;;;;0.40;0.20;;;0.60;99.90;;;;;;4953221;29;20444;-74
2021/12/03 03:44:17;;;;;;;0.40;0.30;;;0.60;99.90;;;;;;4936468;29;20414;-75
2021/12/03 03:46:44;;;;;;;0.40;0.20;;;0.60;99.90;;;;;;4953946;29;20468;-74
2021/12/03 03:49:09;;;;;;;0.40;0.20;;;0.60;99.90;;;;;;4953539;29;20554;-74
2021/12/03 03:51:35;;;;;;;0.40;0.30;;;0.60;99.90;;;;;;4953631;29;20927;-74
2021/12/03 03:54:02;;;;;;;0.40;0.30;;;0.60;99.90;;;;;;4952793;29;20508;-74
2021/12/03 03:56:29;;;;;;;0.40;0.20;;;0.60;99.90;;;;;;4936101;29;20394;-74
2021/12/03 03:58:54;;;;;;;0.40;0.20;;;0.60;99.90;;;;;;4953132;29;20810;-74
2021/12/03 04:01:20;;;;;;;0.40;0.20;;;0.50;99.90;;;;;;4953516;29;20390;-75
2021/12/03 04:03:46;;;;;;;0.40;0.20;;;0.70;99.90;;;;;;4953255;29;20409;-75
2021/12/03 04:06:17;;;;;;;0.40;0.20;;;0.80;99.90;;;;;;4952874;29;20476;-75
2021/12/03 04:08:45;;;;;;;0.40;0.20;;;0.80;99.90;;;;;;4953546;29;20432;-74
2021/12/03 04:11:12;;;;;;;0.40;0.40;;;0.90;99.90;;;;;;4952452;29;20386;-74
2021/12/03 04:13:38;;;;;;;0.40;0.20;;;0.80;99.90;;;;;;4953269;29;20413;-74
2021/12/03 04:16:04;;;;;;;0.40;0.20;;;0.90;99.90;;;;;;4953386;28;20751;-75
2021/12/03 04:18:30;;;;;;;1.20;0.60;;;0.90;99.90;;;;;;4952793;28;20481;-74
2021/12/03 04:20:55;;;;;;;0.40;0.20;;;0.90;99.90;;;;;;4953164;29;20831;-74
2021/12/03 04:23:24;;;;;;;0.40;0.20;;;1.00;99.90;;;;;;4952465;29;20424;-74
2021/12/03 04:25:51;;;;;;;0.40;0.30;;;1.00;99.90;;;;;;4953097;29;20739;-74
2021/12/03 04:28:18;;;;;;;0.40;0.30;;;0.90;99.90;;;;;;4952603;29;20426;-74
2021/12/03 04:30:44;;;;;;;0.40;0.20;;;1.20;99.90;;;;;;4953059;29;20382;-74
2021/12/03 04:33:11;;;;;;;0.40;0.20;;;1.20;99.90;;;;;;4953174;29;20893;-75
2021/12/03 04:35:37;;;;;;;0.40;0.30;;;1.20;99.90;;;;;;4952209;29;20430;-74
2021/12/03 04:38:04;;;;;;;0.40;0.20;;;1.20;99.90;;;;;;4952908;29;20437;-74
2021/12/03 04:40:31;;;;;;;0.40;0.32;;;1.20;99.90;;;;;;4935028;29;20874;-75
2021/12/03 04:42:57;;;;;;;0.40;0.20;;;1.20;99.90;;;;;;4952752;29;20499;-74
2021/12/03 04:45:25;;;;;;;0.40;0.20;;;1.30;99.90;;;;;;4952601;29;20882;-75
2021/12/03 04:47:52;;;;;;;0.50;0.40;;;1.20;99.90;;;;;;4934942;29;20398;-75
2021/12/03 04:50:22;;;;;;;0.40;0.20;;;1.20;99.90;;;;;;4952636;29;20410;-74
2021/12/03 04:52:48;;;;;;;0.40;0.20;;;1.10;99.90;;;;;;4951865;28;20394;-73
2021/12/03 04:55:15;;;;;;;0.40;0.30;;;1.20;99.90;;;;;;4952376;29;20410;-74
2021/12/03 04:57:41;;;;;;;0.40;0.20;;;1.20;99.90;;;;;;4951196;29;20473;-74
2021/12/03 05:00:12;;;;;;;0.40;0.20;;;1.30;99.90;;;;;;4952612;29;20382;-74
2021/12/03 05:02:38;;;;;;;0.40;0.20;;;1.10;99.90;;;;;;4953239;29;20758;-74
2021/12/03 05:05:06;;;;;;;0.40;0.40;;;1.00;99.90;;;;;;4952541;29;20414;-76
2021/12/03 05:10:05;;;;;;;0.40;0.20;;;1.00;99.90;;;;;;4952587;29;20385;-75
2021/12/03 05:12:31;;;;;;;0.40;0.20;;;0.90;99.90;;;;;;4953018;29;20390;-76
2021/12/03 05:14:57;;;;;;;0.40;0.20;;;0.90;99.90;;;;;;4952436;29;20465;-75
2021/12/03 05:17:22;;;;;;;0.40;0.20;;;0.90;99.90;;;;;;4952986;29;20438;-75
2021/12/03 05:19:49;;;;;;;0.90;0.80;;;0.90;99.90;;;;;;4952755;29;20394;-75
2021/12/03 05:22:15;;;;;;;0.40;0.20;;;0.90;99.90;;;;;;4952133;29;20688;-75
2021/12/03 05:24:45;;;;;;;0.40;0.40;;;0.90;99.90;;;;;;4952925;29;20839;-74
2021/12/03 05:27:13;;;;;;;0.40;0.30;;;0.80;99.90;;;;;;4952226;29;20401;-75
2021/12/03 05:29:40;;;;;;;0.40;0.20;;;0.80;99.90;;;;;;4952883;29;20812;-75
2021/12/03 05:32:06;;;;;;;0.40;0.20;;;0.80;99.90;;;;;;4951997;29;20382;-75
2021/12/03 05:34:32;;;;;;;0.40;0.20;;;0.80;99.90;;;;;;4953305;28;20754;-75
2021/12/03 05:36:58;;;;;;;0.40;0.30;;;0.70;99.90;;;;;;4972103;28;20818;-75
2021/12/03 05:39:24;;;;;;;0.40;0.30;;;0.70;99.90;;;;;;4971540;28;20408;-75
2021/12/03 05:41:49;;;;;;;0.40;0.20;;;0.60;99.90;;;;;;4972003;28;20384;-75
2021/12/03 05:44:15;;;;;;;0.40;0.30;;;0.60;99.90;;;;;;4971224;28;20847;-75
2021/12/03 05:46:41;;;;;;;0.40;0.20;;;0.50;99.90;;;;;;4972019;28;20468;-75
2021/12/03 05:49:07;;;;;;;0.40;0.20;;;0.60;99.90;;;;;;4971862;28;20714;-75
2021/12/03 05:51:33;;;;;;;0.40;0.30;;;0.60;99.90;;;;;;4971003;28;20419;-75
2021/12/03 05:53:59;;;;;;;0.47;0.47;;;0.70;99.90;;;;;;4971932;28;20948;-74
2021/12/03 05:56:25;;;;;;;0.40;0.30;;;0.70;99.90;;;;;;4971546;28;20479;-74
2021/12/03 05:58:51;;;;;;;0.40;0.20;;;0.70;99.90;;;;;;4971689;28;20472;-75
2021/12/03 06:01:17;;;;;;;0.40;0.20;;;0.80;99.90;;;;;;4971711;28;20467;-74
2021/12/03 06:03:45;;;;;;;0.40;0.20;;;0.90;99.90;;;;;;4973152;28;20396;-74
2021/12/03 06:06:11;;;;;;;0.40;0.20;;;0.70;99.90;;;;;;4975625;28;20478;-75
2021/12/03 06:08:37;;;;;;;0.40;0.20;;;0.80;99.90;;;;;;4957590;28;20828;-75
2021/12/03 06:11:03;;;;;;;0.40;0.20;;;0.90;99.90;;;;;;4975443;28;20427;-75
2021/12/03 06:13:28;;;;;;;0.40;0.20;;;0.80;99.90;;;;;;4975335;28;20391;-75
2021/12/03 06:15:54;;;;;;;0.40;0.20;;;0.70;99.90;;;;;;4974888;28;20400;-75
2021/12/03 06:18:20;;;;;;;0.40;0.20;;;0.80;99.90;;;;;;4975489;28;20428;-75
2021/12/03 06:20:46;;;;;;;0.50;0.50;;;0.80;99.90;;;;;;4957497;28;20396;-75
2021/12/03 06:23:12;;;;;;;0.40;0.20;;;0.80;99.90;;;;;;4975208;28;20400;-75
2021/12/03 06:25:38;;;;;;;0.40;0.20;;;0.70;99.90;;;;;;4975210;28;20427;-75
2021/12/03 06:28:04;;;;;;;0.40;0.40;;;0.70;99.90;;;;;;4974677;28;20396;-75
2021/12/03 06:30:30;;;;;;;0.40;0.20;;;0.70;99.90;;;;;;4975019;28;20919;-75
2021/12/03 06:32:56;;;;;;;0.40;0.20;;;0.80;99.90;;;;;;4957184;28;20396;-74
2021/12/03 06:35:23;;;;;;;0.40;0.20;;;0.70;99.90;;;;;;4967827;28;20805;-74
2021/12/03 06:37:50;;;;;;;0.40;0.30;;;0.70;99.90;;;;;;4955497;29;20394;-74
2021/12/03 06:40:22;;;;;;;0.40;0.20;;;0.80;99.90;;;;;;4955245;29;20390;-74
2021/12/03 06:42:48;;;;;;;0.40;0.20;;;0.80;99.90;;;;;;4955400;29;20874;-74
2021/12/03 06:45:15;;;;;;;0.47;0.47;;;0.60;99.90;;;;;;4954980;29;20461;-74
2021/12/03 06:47:41;;;;;;;0.40;0.20;;;0.50;99.90;;;;;;4955543;29;20469;-74
2021/12/03 06:50:09;;;;;;;0.40;0.20;;;0.50;99.90;;;;;;4954506;29;20417;-75
2021/12/03 06:52:38;;;;;;;0.40;0.20;;;0.40;99.90;;;;;;4955389;29;20475;-74
2021/12/03 06:55:08;;;;;;;0.40;0.20;;;0.40;99.90;;;;;;4954706;29;20414;-75
2021/12/03 06:57:34;;;;;;;0.40;0.20;;;0.40;99.90;;;;;;4955399;29;20468;-75
2021/12/03 06:59:59;;;;;;;0.40;0.20;;;0.40;99.90;;;;;;4955766;29;20432;-74
2021/12/03 07:02:25;;;;;;;0.40;0.40;;;0.40;99.90;;;;;;4955158;29;20386;-74
2021/12/03 07:04:51;;;;;;;0.40;0.20;;;0.40;99.90;;;;;;4955344;29;20394;-74
2021/12/03 07:07:16;;;;;;;0.40;0.20;;;0.30;99.90;;;;;;4954308;29;20390;-74
2021/12/03 07:09:42;;;;;;;0.40;0.20;;;0.30;99.90;;;;;;4938155;29;20396;-74
2021/12/03 07:12:10;;;;;;;0.40;0.30;;;0.40;99.90;;;;;;4955161;29;20395;-74
2021/12/03 07:14:35;;;;;;;0.40;0.20;;;0.30;99.90;;;;;;4953241;28;20484;-74
2021/12/03 07:17:05;;;;;;;0.40;0.20;;;0.30;99.90;;;;;;4955310;29;20390;-74
2021/12/03 07:19:31;;;;;;;0.40;0.40;;;0.20;99.90;;;;;;4954461;29;20437;-74
2021/12/03 07:21:56;;;;;;;0.70;0.70;;;0.20;99.90;;;;;;4955135;29;20811;-73
2021/12/03 07:24:22;;;;;;;0.40;0.20;;;0.20;99.90;;;;;;4937112;29;20425;-74
2021/12/03 07:26:48;;;;;;;0.40;0.20;;;0.30;99.90;;;;;;4937576;29;20390;-71
2021/12/03 07:29:14;;;;;;;0.80;0.50;;;0.30;99.90;;;;;;4954676;29;20382;-71
2021/12/03 07:31:39;;;;;;;0.40;0.20;;;0.30;99.90;;;;;;4954099;29;20469;-71
2021/12/03 07:34:05;;;;;;;0.40;0.20;;;0.50;99.90;;;;;;4937480;29;20425;-71
2021/12/03 07:36:31;;;;;;;0.40;0.30;;;0.30;99.90;;;;;;4954232;29;20394;-72
2021/12/03 07:38:56;;;;;;;0.40;0.20;;;0.40;99.90;;;;;;4937403;29;20958;-72
2021/12/03 07:41:22;;;;;;;0.40;0.30;;;0.50;99.90;;;;;;4956976;28;20444;-72
2021/12/03 07:43:48;;;;;;;0.40;0.20;;;0.40;99.90;;;;;;4958472;28;20398;-72
2021/12/03 07:46:15;;;;;;;0.40;0.20;;;0.50;99.90;;;;;;4956712;28;20850;-72
2021/12/03 07:48:46;;;;;;;2.60;1.40;;;0.50;99.90;;;;;;4972978;28;20431;-72
2021/12/03 07:51:14;;;;;;;0.40;0.30;;;0.50;99.90;;;;;;4967379;28;20508;-72
2021/12/03 07:53:39;;;;;;;0.40;0.20;;;0.50;99.90;;;;;;4958243;28;21017;-72
2021/12/03 07:56:05;;;;;;;0.40;0.20;;;0.50;99.90;;;;;;4967232;28;20398;-72
2021/12/03 07:58:31;;;;;;;0.40;0.20;;;0.60;99.90;;;;;;4954032;29;20870;-72
2021/12/03 08:00:57;;;;;;;0.40;0.20;;;0.70;99.90;;;;;;4951330;28;20476;-72
2021/12/03 08:03:24;;;;;;;0.40;0.30;;;0.90;99.90;;;;;;4971524;28;20455;-71
2021/12/03 08:05:49;;;;;;;0.40;0.20;;;0.90;99.90;;;;;;4966154;28;20390;-72
2021/12/03 08:08:21;;;;;;;0.40;0.20;;;1.00;99.90;;;;;;4954179;29;20461;-71
2021/12/03 08:10:49;;;;;;;0.40;0.20;;;1.10;99.90;;;;;;4967561;28;20437;-72
2021/12/03 08:13:15;;;;;;;0.40;0.20;;;1.10;99.90;;;;;;4963630;28;20910;-71
2021/12/03 08:15:40;;;;;;;0.40;0.20;;;1.10;99.90;;;;;;4962419;28;21567;-71
2021/12/03 08:18:06;;;;;;;0.40;0.20;;;1.10;99.90;;;;;;4960416;28;20492;-71
2021/12/03 08:20:33;;;;;;;0.40;0.20;;;1.30;99.90;;;;;;4964284;28;20465;-71
2021/12/03 08:22:58;;;;;;;0.40;0.20;;;1.30;99.90;;;;;;4967785;28;20390;-72
2021/12/03 08:25:26;;;;;;;0.40;0.30;;;1.30;99.90;;;;;;4955240;28;20409;-72
2021/12/03 08:27:51;;;;;;;0.40;0.20;;;1.40;99.90;;;;;;4961655;28;20896;-72
2021/12/03 08:30:17;;;;;;;0.40;0.20;;;1.40;99.90;;;;;;4961337;28;20677;-72
2021/12/03 08:32:43;;;;;;;0.40;0.20;;;1.50;99.90;;;;;;4953619;29;20397;-72
2021/12/03 08:35:09;;;;;;;0.40;0.20;;;1.60;99.90;;;;;;4953066;29;20759;-69
2021/12/03 08:37:35;;;;;;;0.40;0.30;;;1.50;99.90;;;;;;4955835;28;20854;-71
2021/12/03 08:40:04;;;;;;;0.40;0.20;;;1.50;99.90;;;;;;4960159;28;20443;-71
2021/12/03 08:42:29;;;;;;;0.40;0.20;;;1.50;99.90;;;;;;4961211;28;20404;-72
2021/12/03 08:44:57;;;;;;;0.40;0.40;;;1.50;99.90;;;;;;4977000;28;20396;-71
2021/12/03 08:47:22;;;;;;;0.40;0.20;;;1.60;99.90;;;;;;4956644;28;20420;-71
2021/12/03 08:49:54;;;;;;;0.40;0.20;;;1.30;99.90;;;;;;4986996;28;20422;-71
2021/12/03 08:54:54;;;;;;;0.40;0.20;;;1.30;99.90;;;;;;4985074;28;20442;-71
2021/12/03 08:57:22;;;;;;;0.60;0.60;;;1.30;99.90;;;;;;4982950;28;20481;-72
2021/12/03 08:59:50;;;;;;;0.40;0.20;;;1.20;99.90;;;;;;4973724;28;20392;-71
2021/12/03 09:02:16;;;;;;;0.40;0.23;;;1.20;99.90;;;;;;4959691;28;20464;-72
2021/12/03 09:04:42;;;;;;;0.52;0.52;;;1.00;99.90;;;;;;4959115;28;20479;-72
2021/12/03 09:07:07;;;;;;;0.40;0.40;;;1.00;99.90;;;;;;4957950;28;21194;-72
2021/12/03 09:09:33;;;;;;;0.40;0.30;;;1.20;99.90;;;;;;4958573;28;20403;-73
2021/12/03 09:11:59;;;;;;;0.40;0.20;;;1.30;99.90;;;;;;4957720;28;20409;-72
2021/12/03 09:17:05;;;;;;;0.40;0.20;;;1.20;99.90;;;;;;4959110;28;20428;-71
2021/12/03 09:19:36;;;;;;;0.50;0.50;;;1.20;99.90;;;;;;4958642;28;20400;-72
2021/12/03 09:22:02;;;;;;;0.40;0.20;;;1.20;99.90;;;;;;4957523;28;20400;-72
2021/12/03 09:24:31;;;;;;;0.40;0.20;;;1.30;99.90;;;;;;4958788;28;20464;-73
2021/12/03 09:26:57;;;;;;;0.40;0.20;;;1.40;99.90;;;;;;4932164;28;20823;-72
2021/12/03 09:29:29;;;;;;;0.40;0.20;;;1.40;99.90;;;;;;4956752;28;20557;-73
2021/12/03 09:31:56;;;;;;;0.90;0.80;;;1.60;99.90;;;;;;4955643;28;21150;-72
2021/12/03 09:34:23;;;;;;;0.40;0.30;;;1.60;99.90;;;;;;4956567;28;20427;-72
2021/12/03 09:36:49;;;;;;;0.40;0.30;;;1.60;99.90;;;;;;4940164;28;20436;-73
2021/12/03 09:39:23;;;;;;;0.80;0.60;;;1.60;99.90;;;;;;4960474;28;20483;-72
2021/12/03 09:41:52;;;;;;;0.40;0.20;;;1.60;99.90;;;;;;4959140;28;20437;-72
2021/12/03 09:44:19;;;;;;;0.50;0.50;;;1.50;99.90;;;;;;4961697;28;20499;-72
2021/12/03 09:46:46;;;;;;;2.30;0.80;;;1.60;99.90;;;;;;4960929;28;20407;-72
2021/12/03 09:49:24;;;;;;;0.40;0.30;;;1.60;99.90;;;;;;4962652;28;20471;-72
2021/12/03 09:57:14;;;;;;;0.40;0.30;;;1.60;99.90;;;;;;4981587;28;20522;-71
2021/12/03 10:16:01;;;;;;;0.40;0.20;;;2.50;99.90;;;;;;4963831;28;20713;-70
2021/12/03 10:18:48;;;;;;;0.40;0.20;;;2.70;99.90;;;;;;4964408;28;20831;-71
2021/12/03 10:43:17;;;;;;;0.40;0.20;;;3.00;99.90;;;;;;4974542;28;20463;-71
2021/12/03 10:54:11;;;;;;;0.70;0.70;;;3.40;99.90;;;;;;4955063;29;20426;-71
2021/12/03 11:05:09;;;;;;;0.40;0.40;;;4.10;99.90;;;;;;4954244;29;20712;-71
2021/12/03 11:46:45;;;;;;;0.40;0.20;;;4.40;99.90;;;;;;4966793;28;20404;-70
2021/12/03 12:00:04;;;;;;;0.40;0.30;;;7.10;92.90;;;;;;4952894;29;20460;-71
2021/12/03 12:33:15;;;;;;;0.40;0.20;;;4.70;99.90;;;;;;4971863;28;20492;-71
2021/12/03 12:44:23;;;;;;;0.40;0.20;;;4.80;99.90;;;;;;4961614;28;20764;-73
2021/12/03 13:44:30;;;;;;;0.40;0.20;;;4.40;99.90;;;;;;4972156;28;20861;-70
2021/12/03 14:07:37;;;;;;;0.40;0.40;;;4.30;99.90;;;;;;4971837;28;20384;-71
2021/12/03 14:40:17;;;;;;;0.40;0.30;;;4.10;99.90;;;;;;4955751;29;20933;-70
2021/12/03 14:42:54;;;;;;;0.40;0.20;;;4.40;99.90;;;;;;4955034;29;20454;-71
2021/12/03 14:56:18;;;;;;;0.40;0.20;;;4.00;99.90;;;;;;4939919;29;20418;-71
2021/12/03 15:07:14;;;;;;;0.93;0.57;;;3.80;99.90;;;;;;4919263;29;20397;-71
2021/12/03 15:09:42;;;;;;;0.40;0.20;;;3.70;99.90;;;;;;4955151;29;20390;-72
2021/12/03 15:41:14;;;;;;;0.40;0.20;;;3.30;99.90;;;;;;4973880;28;20391;-72
2021/12/03 16:26:09;;;;;;;0.40;0.20;;;3.10;99.90;;;;;;4972389;28;20763;-71
2021/12/03 16:45:16;;;;;;;0.40;0.20;;;3.20;99.90;;;;;;4952899;29;20443;-71
2021/12/03 16:52:59;;;;;;;0.40;0.40;;;3.10;99.90;;;;;;4952698;29;20382;-71
2021/12/03 16:55:24;;;;;;;0.40;0.30;;;2.90;99.90;;;;;;4953535;29;20422;-71
2021/12/03 16:57:52;;;;;;;0.40;0.30;;;3.00;99.90;;;;;;4936031;29;20405;-71
2021/12/03 17:03:27;;;;;;;0.40;0.40;;;3.00;99.90;;;;;;4936859;29;20456;-71
2021/12/03 17:06:56;;;;;;;0.40;0.20;;;3.00;99.90;;;;;;4953283;29;20400;-71
2021/12/03 17:09:44;;;;;;;0.40;0.30;;;3.00;99.90;;;;;;4952499;28;20897;-72
2021/12/03 17:11:42;;;;;;;0.40;0.28;;;2.80;99.90;;;;;;4945797;28;20901;-72
2021/12/03 17:49:14;;;;;;;0.40;0.20;;;2.50;99.90;;;;;;4971446;28;20479;-71
2021/12/03 17:56:55;;;;;;;0.40;0.20;;;2.50;99.90;;;;;;4972016;28;20457;-71
2021/12/03 17:59:39;;;;;;;0.40;0.20;;;2.70;99.90;;;;;;4973313;28;20491;-70
2021/12/03 18:02:18;;;;;;;0.40;0.30;;;2.70;99.90;;;;;;4975779;28;20384;-71
2021/12/03 18:05:10;;;;;;;;;;;;;;;;;;;;;
2021/12/03 18:10:23;;;;;;;0.40;0.40;;;2.50;99.90;;;;;;4975348;28;20400;-71
2021/12/03 18:53:08;;;;;;;0.60;0.50;;;2.60;99.90;;;;;;4954694;29;20385;-72
2021/12/03 18:58:06;;;;;;;0.40;0.20;;;2.70;99.90;;;;;;4954813;29;20456;-72
2021/12/03 19:00:39;;;;;;;0.40;0.20;;;2.70;99.90;;;;;;4955093;29;20888;-71
2021/12/03 19:03:26;;;;;;;0.40;0.20;;;2.70;99.90;;;;;;4954822;29;20560;-72
2021/12/03 19:11:05;;;;;;;0.40;0.38;;;2.70;99.90;;;;;;4955530;28;20872;-71
2021/12/03 19:13:37;;;;;;;0.40;0.20;;;2.70;99.90;;;;;;4937662;29;20397;-71
2021/12/03 19:16:04;;;;;;;0.40;0.30;;;2.70;99.90;;;;;;4954963;29;20442;-72
2021/12/03 19:18:30;;;;;;;0.40;0.20;;;2.70;99.90;;;;;;4954528;29;20857;-71
2021/12/03 19:20:57;;;;;;;0.40;0.20;;;2.70;99.90;;;;;;4954543;29;20425;-72
2021/12/03 19:23:23;;;;;;;0.40;0.40;;;2.70;99.90;;;;;;4954370;29;20390;-72
2021/12/03 19:25:49;;;;;;;0.40;0.20;;;2.70;99.90;;;;;;4955083;29;20421;-72
2021/12/03 19:28:15;;;;;;;0.40;0.20;;;2.70;99.90;;;;;;4937651;29;20397;-71
2021/12/03 19:30:41;;;;;;;0.40;0.40;;;2.70;99.90;;;;;;4954440;29;20390;-72
2021/12/03 19:33:07;;;;;;;0.40;0.20;;;2.80;99.90;;;;;;4954793;28;20485;-71
2021/12/03 19:35:34;;;;;;;0.50;0.40;;;2.80;99.90;;;;;;4962109;28;20820;-71
2021/12/03 19:38:03;;;;;;;0.40;0.20;;;2.80;99.90;;;;;;4973987;28;20399;-71
2021/12/03 19:40:34;;;;;;;0.40;0.20;;;2.60;99.90;;;;;;4956701;28;20436;-71
2021/12/03 19:43:11;;;;;;;0.40;0.20;;;2.80;99.90;;;;;;4973982;28;20462;-71
2021/12/03 19:45:46;;;;;;;0.40;0.30;;;2.80;99.90;;;;;;4957758;28;20490;-71
2021/12/03 19:48:14;;;;;;;0.40;0.25;;;2.80;99.90;;;;;;4973933;28;20383;-71
2021/12/03 19:50:54;;;;;;;0.40;0.20;;;2.90;99.90;;;;;;4972832;28;20514;-71
2021/12/03 19:53:27;;;;;;;0.40;0.20;;;2.80;99.90;;;;;;4973495;28;20482;-71
2021/12/03 19:55:52;;;;;;;0.40;0.20;;;2.80;99.90;;;;;;4972903;28;20426;-72
2021/12/03 19:58:20;;;;;;;0.40;0.20;;;2.80;99.90;;;;;;4973598;28;20827;-72
2021/12/03 20:00:49;;;;;;;0.40;0.20;;;2.90;99.90;;;;;;4972931;28;20396;-72
2021/12/03 20:03:16;;;;;;;0.40;0.22;;;2.90;99.90;;;;;;4973595;28;20388;-71
2021/12/03 20:05:41;;;;;;;0.50;0.50;;;2.90;99.90;;;;;;4971239;28;20396;-72
2021/12/03 20:08:08;;;;;;;0.50;0.47;;;2.90;99.90;;;;;;4973696;28;20460;-72
2021/12/03 20:10:46;;;;;;;0.40;0.20;;;2.90;99.90;;;;;;4973236;28;20484;-72
2021/12/03 20:13:12;;;;;;;0.40;0.20;;;2.90;99.90;;;;;;4973282;28;20400;-72
2021/12/03 20:18:45;;;;;;;0.40;0.20;;;2.90;99.90;;;;;;4920358;28;20505;-71
2021/12/03 20:21:12;;;;;;;0.40;0.20;;;3.00;99.90;;;;;;4972961;28;20476;-72
2021/12/03 20:24:08;;;;;;;0.40;0.30;;;3.00;99.90;;;;;;4972773;28;20408;-72
2021/12/03 20:26:35;;;;;;;0.40;0.30;;;2.80;99.90;;;;;;4971381;28;20572;-72
2021/12/03 20:31:34;;;;;;;0.40;0.20;;;2.90;99.90;;;;;;4972920;28;20395;-71
2021/12/03 20:34:48;;;;;;;0.50;0.40;;;3.00;99.90;;;;;;4972270;28;20447;-72
2021/12/03 20:36:56;;;;;;;2.90;1.40;;;3.00;99.90;;;;;;4964346;28;20404;-72
2021/12/03 20:39:25;;;;;;;0.40;0.22;;;3.00;99.90;;;;;;4973009;28;20435;-70
2021/12/03 21:10:55;;;;;;;0.40;0.20;;;3.10;99.90;;;;;;4972541;28;20391;-71
2021/12/03 21:13:27;;;;;;;0.40;0.20;;;3.10;99.90;;;;;;4971840;28;20388;-71
2021/12/03 21:16:07;;;;;;;0.40;0.20;;;3.10;99.90;;;;;;4972342;28;20420;-71
2021/12/03 21:21:33;;;;;;;0.40;0.30;;;3.20;99.90;;;;;;4972499;28;20414;-71
2021/12/03 21:24:00;;;;;;;0.40;0.30;;;3.10;99.90;;;;;;4972176;28;20387;-71
2021/12/03 21:26:30;;;;;;;0.40;0.20;;;3.20;99.90;;;;;;4954478;28;20454;-71
2021/12/03 21:29:09;;;;;;;0.50;0.28;;;3.10;99.90;;;;;;4954860;28;20812;-70
2021/12/03 21:31:53;;;;;;;0.40;0.20;;;3.10;99.90;;;;;;4971468;28;20384;-71